Time;durP1;ratioP1;P1;durP2;ratioP2;P2;SDS_P1;SDS_P2;PMS_P1;PMS_P2;Temp;Humidity;BMP_temperature;BMP_pressure;BME280_temperature;BME280_humidity;BME280_pressure;Samples;Min_cycle;Max_cycle;Signal;HPM_P1;HPM_P2
2021/07/10 00:00:33;;;;;;;17.30;15.27;;;16.00;99.90;;;;;;4993897;28;20038;-70
2021/07/10 00:03:00;;;;;;;17.33;15.23;;;15.90;99.90;;;;;;4976731;28;20019;-71
2021/07/10 00:05:25;;;;;;;17.65;15.85;;;15.90;99.90;;;;;;4993352;28;20026;-71
2021/07/10 00:07:52;;;;;;;18.58;15.10;;;15.90;99.90;;;;;;4993591;28;20031;-75
2021/07/10 00:10:18;;;;;;;18.33;15.15;;;15.90;99.90;;;;;;4956262;28;20106;-71
2021/07/10 00:12:45;;;;;;;18.15;15.07;;;15.90;99.90;;;;;;4993150;28;20037;-81
2021/07/10 00:15:18;;;;;;;17.70;15.02;;;15.90;99.90;;;;;;4993648;28;20037;-71
2021/07/10 00:17:44;;;;;;;17.80;15.02;;;15.90;99.90;;;;;;4992893;28;20054;-71
2021/07/10 00:20:11;;;;;;;19.10;15.43;;;16.00;99.90;;;;;;4993584;28;20490;-71
2021/07/10 00:22:37;;;;;;;18.35;16.33;;;16.10;99.90;;;;;;4993153;28;20038;-84
2021/07/10 00:25:15;;;;;;;19.85;15.70;;;16.20;99.90;;;;;;4992708;28;20022;-70
2021/07/10 00:27:42;;;;;;;19.00;15.10;;;16.20;99.90;;;;;;4992809;28;20494;-70
2021/07/10 00:30:11;;;;;;;17.65;15.10;;;16.10;99.90;;;;;;4993638;28;20088;-73
2021/07/10 00:32:36;;;;;;;17.45;14.90;;;16.10;99.90;;;;;;4992914;28;20076;-71
2021/07/10 00:35:04;;;;;;;23.20;16.15;;;16.10;99.90;;;;;;4993507;28;20058;-71
2021/07/10 00:37:29;;;;;;;17.95;15.43;;;16.00;99.90;;;;;;4993820;28;20030;-70
2021/07/10 00:39:55;;;;;;;17.45;15.15;;;16.00;99.90;;;;;;4992267;28;20030;-70
2021/07/10 00:42:21;;;;;;;16.23;14.52;;;15.90;99.90;;;;;;4975609;28;20050;-71
2021/07/10 00:44:48;;;;;;;20.35;14.52;;;15.90;99.90;;;;;;4975990;28;20066;-82
2021/07/10 00:47:14;;;;;;;19.23;14.80;;;15.90;99.90;;;;;;4991675;28;20053;-71
2021/07/10 00:49:40;;;;;;;16.83;15.02;;;15.90;99.90;;;;;;4993323;28;20406;-71
2021/07/10 00:52:06;;;;;;;17.77;15.45;;;15.90;99.90;;;;;;4993214;28;20038;-76
2021/07/10 00:54:32;;;;;;;16.55;14.63;;;15.80;99.90;;;;;;4975320;28;20081;-76
2021/07/10 00:56:59;;;;;;;19.00;15.60;;;15.80;99.90;;;;;;4993320;28;20026;-74
2021/07/10 00:59:27;;;;;;;19.20;15.80;;;15.80;99.90;;;;;;4992194;28;20034;-70
2021/07/10 01:01:53;;;;;;;24.00;15.38;;;15.80;99.90;;;;;;4992877;28;20493;-71
2021/07/10 01:04:18;;;;;;;18.70;16.52;;;15.90;99.90;;;;;;4992668;28;20034;-71
2021/07/10 01:06:44;;;;;;;21.50;15.52;;;16.00;99.90;;;;;;4992365;28;20146;-80
2021/07/10 01:09:10;;;;;;;18.65;16.25;;;16.20;99.90;;;;;;4991781;28;20030;-71
2021/07/10 01:11:36;;;;;;;20.42;16.08;;;16.30;99.90;;;;;;4992853;28;20050;-74
2021/07/10 01:14:02;;;;;;;20.25;17.33;;;16.30;99.90;;;;;;4975157;28;20026;-71
2021/07/10 01:16:28;;;;;;;21.75;16.77;;;16.40;99.90;;;;;;4993163;28;20031;-73
2021/07/10 01:18:54;;;;;;;20.00;15.55;;;16.40;99.90;;;;;;4992914;28;20027;-71
2021/07/10 01:21:19;;;;;;;19.80;16.27;;;16.50;99.90;;;;;;4992076;28;20026;-72
2021/07/10 01:23:45;;;;;;;19.30;16.67;;;16.50;99.90;;;;;;4992819;28;20467;-71
2021/07/10 01:26:10;;;;;;;21.60;17.80;;;16.50;99.90;;;;;;4992826;28;20474;-72
2021/07/10 01:28:36;;;;;;;21.58;16.60;;;16.60;99.90;;;;;;4974299;28;20038;-73
2021/07/10 01:31:03;;;;;;;22.00;17.33;;;16.60;99.90;;;;;;4975438;28;20110;-72
2021/07/10 01:33:29;;;;;;;18.75;16.70;;;16.70;99.90;;;;;;4992770;28;20029;-84
2021/07/10 01:35:55;;;;;;;18.60;16.30;;;16.70;99.90;;;;;;4992388;28;20109;-75
2021/07/10 01:38:21;;;;;;;17.98;16.08;;;16.80;99.90;;;;;;4975166;28;20037;-71
2021/07/10 01:40:46;;;;;;;22.13;16.27;;;16.80;99.90;;;;;;4992901;28;20034;-86
2021/07/10 01:43:12;;;;;;;18.13;15.77;;;16.80;99.90;;;;;;4994991;28;20471;-82
2021/07/10 01:45:39;;;;;;;17.83;15.38;;;16.80;99.90;;;;;;4979135;28;20475;-87
2021/07/10 01:48:07;;;;;;;19.67;16.40;;;16.70;99.90;;;;;;4994628;28;20442;-79
2021/07/10 01:50:32;;;;;;;19.52;17.10;;;16.70;99.90;;;;;;4995612;28;20045;-72
2021/07/10 01:52:59;;;;;;;18.80;15.23;;;16.70;99.90;;;;;;4996613;28;20117;-86
2021/07/10 01:55:25;;;;;;;22.60;16.38;;;16.60;99.90;;;;;;4995981;28;20033;-90
2021/07/10 01:57:52;;;;;;;19.95;15.77;;;16.50;99.90;;;;;;4978504;28;20026;-77
2021/07/10 02:00:26;;;;;;;21.02;16.17;;;16.40;99.90;;;;;;4996135;28;20022;-87
2021/07/10 02:02:54;;;;;;;18.85;15.77;;;16.30;99.90;;;;;;4996037;28;20038;-76
2021/07/10 02:05:24;;;;;;;26.35;16.63;;;16.20;99.90;;;;;;4996057;28;20022;-85
2021/07/10 02:07:50;;;;;;;20.67;16.05;;;16.10;99.90;;;;;;4992572;28;20479;-71
2021/07/10 02:10:19;;;;;;;22.50;17.00;;;16.10;99.90;;;;;;4968041;28;20061;-70
2021/07/10 02:12:52;;;;;;;20.52;16.85;;;16.10;99.90;;;;;;4993405;28;20073;-70
2021/07/10 02:15:18;;;;;;;21.35;16.13;;;16.20;99.90;;;;;;4999658;28;20033;-72
2021/07/10 02:17:47;;;;;;;18.98;16.27;;;16.20;99.90;;;;;;4994908;28;20030;-80
2021/07/10 02:20:21;;;;;;;19.35;15.93;;;16.30;99.90;;;;;;4995277;28;20031;-73
2021/07/10 02:22:48;;;;;;;22.50;17.27;;;16.30;99.90;;;;;;4995171;28;20869;-69
2021/07/10 02:25:16;;;;;;;19.98;17.00;;;16.30;99.90;;;;;;5006270;28;20022;-70
2021/07/10 02:27:43;;;;;;;27.83;16.92;;;16.30;99.90;;;;;;4987970;28;20045;-70
2021/07/10 02:30:12;;;;;;;19.65;16.05;;;16.40;99.90;;;;;;4995809;28;20106;-70
2021/07/10 02:32:39;;;;;;;18.58;16.38;;;16.40;99.90;;;;;;4976070;28;20034;-70
2021/07/10 02:35:07;;;;;;;20.08;17.38;;;16.30;99.90;;;;;;4995539;28;20388;-87
2021/07/10 02:37:33;;;;;;;19.42;17.13;;;16.30;99.90;;;;;;4995741;28;20037;-71
2021/07/10 02:39:59;;;;;;;21.88;17.75;;;16.30;99.90;;;;;;4995162;28;20495;-71
2021/07/10 02:42:25;;;;;;;20.63;16.67;;;16.20;99.90;;;;;;4995138;28;20030;-71
2021/07/10 02:44:50;;;;;;;20.23;16.48;;;16.20;99.90;;;;;;4995416;28;20038;-76
2021/07/10 02:47:16;;;;;;;17.63;15.77;;;16.10;99.90;;;;;;4994801;28;20042;-82
2021/07/10 02:49:42;;;;;;;23.10;15.68;;;16.10;99.90;;;;;;4995818;28;20081;-85
2021/07/10 02:52:08;;;;;;;20.30;15.63;;;16.00;99.90;;;;;;4995173;28;20036;-70
2021/07/10 02:54:36;;;;;;;18.88;16.15;;;15.90;99.90;;;;;;4994288;28;20033;-84
2021/07/10 02:57:03;;;;;;;21.25;16.17;;;15.80;99.90;;;;;;4995531;28;20038;-88
2021/07/10 02:59:29;;;;;;;20.13;15.73;;;15.80;99.90;;;;;;4995430;28;20022;-72
2021/07/10 03:01:54;;;;;;;20.92;16.73;;;15.60;99.90;;;;;;4995671;28;20026;-70
2021/07/10 03:04:20;;;;;;;21.60;17.10;;;15.60;99.90;;;;;;4994975;28;20034;-70
2021/07/10 03:06:45;;;;;;;21.30;17.00;;;15.50;99.90;;;;;;4994124;28;20133;-73
2021/07/10 03:09:11;;;;;;;21.08;17.48;;;15.50;99.90;;;;;;4995121;28;20061;-70
2021/07/10 03:11:36;;;;;;;18.35;16.40;;;15.40;99.90;;;;;;4994602;28;20134;-70
2021/07/10 03:14:02;;;;;;;20.63;17.17;;;15.40;99.90;;;;;;4994179;28;20058;-80
2021/07/10 03:16:28;;;;;;;21.00;16.73;;;15.40;99.90;;;;;;4994706;28;20088;-83
2021/07/10 03:18:53;;;;;;;19.73;15.48;;;15.30;99.90;;;;;;4994794;28;20042;-70
2021/07/10 03:21:19;;;;;;;17.85;15.55;;;15.30;99.90;;;;;;4994166;28;20023;-70
2021/07/10 03:23:44;;;;;;;19.33;16.77;;;15.20;99.90;;;;;;4994956;28;20026;-71
2021/07/10 03:26:10;;;;;;;21.42;17.67;;;15.20;99.90;;;;;;4976924;28;20096;-69
2021/07/10 03:28:35;;;;;;;19.38;16.25;;;15.20;99.90;;;;;;4994085;28;20038;-70
2021/07/10 03:31:01;;;;;;;22.92;16.75;;;15.10;99.90;;;;;;4994690;28;20033;-69
2021/07/10 03:33:26;;;;;;;21.48;15.95;;;15.10;99.90;;;;;;4994347;28;20037;-70
2021/07/10 03:35:52;;;;;;;20.10;16.98;;;15.10;99.90;;;;;;4976720;28;20072;-69
2021/07/10 03:38:18;;;;;;;20.08;16.83;;;15.10;99.90;;;;;;4993999;28;20053;-70
2021/07/10 03:40:44;;;;;;;19.88;17.67;;;15.10;99.90;;;;;;4994502;28;20025;-70
2021/07/10 03:43:09;;;;;;;19.83;17.17;;;15.00;99.90;;;;;;4993035;28;20026;-70
2021/07/10 03:45:35;;;;;;;19.73;16.60;;;15.00;99.90;;;;;;4994167;28;20026;-71
2021/07/10 03:48:00;;;;;;;19.58;17.10;;;15.00;99.90;;;;;;4993571;28;20042;-70
2021/07/10 03:50:27;;;;;;;21.75;17.05;;;15.00;99.90;;;;;;4992846;28;20475;-70
2021/07/10 03:52:53;;;;;;;19.40;16.17;;;15.10;99.90;;;;;;4994508;28;20030;-69
2021/07/10 03:55:19;;;;;;;19.83;17.13;;;15.10;99.90;;;;;;4993556;28;20019;-70
2021/07/10 03:57:44;;;;;;;19.83;16.63;;;15.10;99.90;;;;;;4994529;28;20033;-70
2021/07/10 04:00:21;;;;;;;20.85;16.52;;;15.20;99.90;;;;;;4992898;28;20260;-69
2021/07/10 04:02:47;;;;;;;17.83;15.93;;;15.20;99.90;;;;;;4966562;28;20411;-69
2021/07/10 04:05:13;;;;;;;18.05;15.55;;;15.20;99.90;;;;;;4993562;28;20018;-68
2021/07/10 04:07:39;;;;;;;20.55;17.38;;;15.30;99.90;;;;;;4994068;28;20035;-70
2021/07/10 04:10:07;;;;;;;18.70;16.20;;;15.30;99.90;;;;;;4992507;28;20102;-69
2021/07/10 04:12:32;;;;;;;20.73;16.90;;;15.40;99.90;;;;;;4993451;28;20096;-69
2021/07/10 04:15:01;;;;;;;21.40;16.52;;;15.40;99.90;;;;;;4994256;28;20022;-69
2021/07/10 04:17:28;;;;;;;18.25;16.05;;;15.50;99.90;;;;;;4993223;28;20029;-69
2021/07/10 04:19:54;;;;;;;20.98;17.58;;;15.60;99.90;;;;;;4975910;28;20061;-69
2021/07/10 04:22:20;;;;;;;18.85;16.85;;;15.60;99.90;;;;;;4976470;28;20022;-69
2021/07/10 04:24:45;;;;;;;17.90;16.00;;;15.70;99.90;;;;;;4993140;28;20142;-68
2021/07/10 04:27:11;;;;;;;18.60;16.30;;;15.80;99.90;;;;;;4993145;28;20030;-69
2021/07/10 04:29:36;;;;;;;19.70;16.08;;;15.80;99.90;;;;;;4975736;28;20074;-69
2021/07/10 04:32:02;;;;;;;19.77;16.27;;;15.80;99.90;;;;;;4993001;28;20501;-69
2021/07/10 04:34:28;;;;;;;18.55;16.08;;;15.90;99.90;;;;;;4993918;28;20022;-69
2021/07/10 04:36:53;;;;;;;18.10;16.20;;;15.90;99.90;;;;;;4993304;28;20093;-72
2021/07/10 04:39:19;;;;;;;19.73;16.60;;;15.90;99.90;;;;;;4975218;28;20084;-69
2021/07/10 04:41:44;;;;;;;21.05;16.98;;;16.00;99.90;;;;;;4993126;28;20027;-69
2021/07/10 04:44:10;;;;;;;21.45;16.00;;;16.00;99.90;;;;;;4992954;28;20034;-69
2021/07/10 04:46:35;;;;;;;18.25;15.13;;;16.10;99.90;;;;;;4992951;28;20026;-68
2021/07/10 04:49:01;;;;;;;19.10;17.05;;;16.20;99.90;;;;;;4993283;28;20080;-69
2021/07/10 04:51:27;;;;;;;22.55;18.58;;;16.30;99.90;;;;;;4975696;28;20026;-69
2021/07/10 04:53:52;;;;;;;23.63;16.92;;;16.40;99.90;;;;;;4992730;28;20037;-70
2021/07/10 04:56:18;;;;;;;21.80;17.50;;;16.50;99.90;;;;;;4975460;28;20475;-68
2021/07/10 04:58:44;;;;;;;21.85;17.52;;;16.60;99.90;;;;;;4975175;28;20044;-69
2021/07/10 05:01:12;;;;;;;19.42;17.30;;;16.70;99.90;;;;;;4975786;28;20022;-69
2021/07/10 05:03:39;;;;;;;23.30;17.90;;;16.70;99.90;;;;;;4993225;28;20027;-69
2021/07/10 05:06:04;;;;;;;21.38;18.00;;;16.80;99.90;;;;;;4974949;28;20550;-70
2021/07/10 05:08:30;;;;;;;22.98;19.27;;;16.80;99.90;;;;;;4992769;28;20117;-70
2021/07/10 05:10:55;;;;;;;25.98;20.77;;;16.80;99.90;;;;;;4992819;28;20038;-70
2021/07/10 05:13:21;;;;;;;23.38;20.95;;;16.80;99.90;;;;;;4974504;28;20379;-69
2021/07/10 05:15:46;;;;;;;24.92;20.20;;;16.80;99.90;;;;;;4993396;28;20018;-77
2021/07/10 05:18:12;;;;;;;24.65;20.30;;;16.80;99.90;;;;;;4996421;28;20037;-69
2021/07/10 05:20:38;;;;;;;23.35;20.10;;;16.80;99.90;;;;;;4996367;28;20518;-69
2021/07/10 05:23:04;;;;;;;26.98;21.98;;;16.70;99.90;;;;;;4996459;28;20070;-69
2021/07/10 05:25:29;;;;;;;29.08;21.67;;;16.80;99.90;;;;;;4996761;28;20033;-70
2021/07/10 05:27:55;;;;;;;27.83;23.23;;;16.80;99.90;;;;;;4996124;28;20096;-88
2021/07/10 05:30:20;;;;;;;28.15;22.30;;;16.80;99.90;;;;;;4996571;28;20105;-70
2021/07/10 05:32:46;;;;;;;29.25;24.58;;;16.90;99.90;;;;;;4979646;28;20029;-77
2021/07/10 05:35:16;;;;;;;28.05;23.35;;;16.90;99.90;;;;;;4995639;28;20093;-69
2021/07/10 05:37:41;;;;;;;30.38;24.75;;;17.00;99.90;;;;;;4996993;28;20459;-69
2021/07/10 05:40:07;;;;;;;30.20;24.88;;;17.10;99.90;;;;;;4996055;28;20050;-69
2021/07/10 05:42:33;;;;;;;30.35;23.55;;;17.20;99.90;;;;;;4995592;28;20097;-70
2021/07/10 05:44:59;;;;;;;28.52;24.08;;;17.30;99.90;;;;;;4996383;28;20033;-69
2021/07/10 05:47:24;;;;;;;33.75;24.67;;;17.30;99.90;;;;;;4995887;28;20129;-68
2021/07/10 05:49:50;;;;;;;29.35;25.35;;;17.50;99.90;;;;;;4995374;28;20579;-70
2021/07/10 05:52:15;;;;;;;32.45;26.90;;;17.60;99.90;;;;;;4978875;28;20542;-69
2021/07/10 05:54:41;;;;;;;31.23;26.50;;;17.60;99.90;;;;;;4979190;28;20059;-69
2021/07/10 05:57:07;;;;;;;31.10;25.25;;;17.70;99.90;;;;;;4977843;28;20033;-70
2021/07/10 05:59:32;;;;;;;32.38;26.20;;;17.80;99.90;;;;;;4996683;28;20407;-69
2021/07/10 06:01:58;;;;;;;36.20;27.65;;;17.90;99.90;;;;;;4995399;28;20030;-69
2021/07/10 06:04:24;;;;;;;33.22;28.38;;;18.00;99.90;;;;;;4996009;28;20030;-69
2021/07/10 06:06:50;;;;;;;36.00;29.25;;;18.10;99.90;;;;;;4996066;28;20022;-69
2021/07/10 06:09:16;;;;;;;31.42;26.88;;;18.30;99.90;;;;;;4994780;28;20030;-71
2021/07/10 06:11:41;;;;;;;32.35;28.17;;;18.50;99.90;;;;;;4995246;28;20383;-69
2021/07/10 06:14:12;;;;;;;34.65;28.38;;;18.60;99.90;;;;;;4995331;28;20034;-69
2021/07/10 06:16:37;;;;;;;34.65;28.85;;;18.80;99.90;;;;;;4995549;28;20018;-69
2021/07/10 06:19:03;;;;;;;35.95;29.45;;;18.90;99.90;;;;;;4978446;28;20081;-70
2021/07/10 06:21:29;;;;;;;34.47;28.63;;;19.00;99.90;;;;;;4990428;28;20014;-70
2021/07/10 06:23:56;;;;;;;36.25;31.08;;;19.10;99.90;;;;;;4995161;28;20402;-70
2021/07/10 06:26:21;;;;;;;34.25;29.33;;;19.10;99.90;;;;;;4995347;28;20021;-70
2021/07/10 06:28:49;;;;;;;37.40;31.95;;;19.20;99.90;;;;;;4995522;28;20038;-70
2021/07/10 06:31:18;;;;;;;33.08;29.50;;;19.20;99.90;;;;;;4994617;28;20022;-71
2021/07/10 06:33:44;;;;;;;33.58;30.10;;;19.20;99.90;;;;;;4996084;28;20030;-70
2021/07/10 06:36:11;;;;;;;34.63;30.85;;;19.30;99.90;;;;;;4978118;28;20018;-70
2021/07/10 06:38:36;;;;;;;35.95;31.63;;;19.40;99.90;;;;;;4994760;28;20030;-70
2021/07/10 06:41:02;;;;;;;37.42;31.67;;;19.50;99.90;;;;;;4977752;28;20084;-70
2021/07/10 06:43:28;;;;;;;38.53;33.35;;;19.60;99.90;;;;;;4995161;28;20386;-70
2021/07/10 06:45:53;;;;;;;39.72;34.28;;;19.70;99.90;;;;;;4994606;28;20531;-70
2021/07/10 06:48:19;;;;;;;39.10;33.45;;;19.70;99.90;;;;;;4995046;28;20390;-69
2021/07/10 06:50:44;;;;;;;37.45;32.00;;;19.70;99.90;;;;;;4977967;28;20054;-70
2021/07/10 06:53:10;;;;;;;38.10;32.63;;;19.80;99.90;;;;;;4994383;28;20037;-69
2021/07/10 06:55:35;;;;;;;37.72;32.47;;;19.90;99.90;;;;;;4995378;28;20041;-70
2021/07/10 06:58:01;;;;;;;40.22;32.83;;;20.00;99.90;;;;;;4994810;28;20037;-70
2021/07/10 07:00:27;;;;;;;35.58;31.83;;;20.10;99.90;;;;;;4993620;28;20048;-70
2021/07/10 07:02:52;;;;;;;32.90;28.75;;;20.30;99.90;;;;;;4977669;28;20034;-70
2021/07/10 07:05:18;;;;;;;36.75;29.73;;;20.40;99.90;;;;;;4994179;28;20026;-69
2021/07/10 07:07:44;;;;;;;36.53;31.02;;;20.50;99.90;;;;;;4994979;28;20386;-69
2021/07/10 07:10:11;;;;;;;36.92;29.88;;;20.50;99.90;;;;;;4995126;28;20471;-70
2021/07/10 07:12:37;;;;;;;34.17;29.88;;;20.50;99.90;;;;;;4994043;28;20498;-69
2021/07/10 07:15:05;;;;;;;35.28;30.27;;;20.60;99.90;;;;;;4994175;28;20030;-71
2021/07/10 07:17:31;;;;;;;34.85;28.55;;;20.60;99.90;;;;;;4994974;28;20038;-71
2021/07/10 07:19:56;;;;;;;30.17;26.70;;;20.50;99.90;;;;;;4994225;28;20077;-71
2021/07/10 07:22:22;;;;;;;25.75;22.67;;;20.60;99.90;;;;;;4994157;28;20034;-70
2021/07/10 07:24:48;;;;;;;23.25;20.63;;;20.60;99.90;;;;;;4995096;28;20022;-71
2021/07/10 07:27:13;;;;;;;25.45;21.90;;;20.70;99.90;;;;;;4993486;28;20034;-70
2021/07/10 07:29:39;;;;;;;24.83;22.15;;;20.70;99.90;;;;;;4994528;28;20049;-72
2021/07/10 07:32:05;;;;;;;24.77;21.35;;;20.80;99.90;;;;;;4994705;28;20054;-70
2021/07/10 07:34:31;;;;;;;23.48;20.60;;;20.90;99.90;;;;;;4993796;28;20026;-70
2021/07/10 07:36:56;;;;;;;27.23;22.40;;;21.00;99.90;;;;;;4976873;28;20497;-70
2021/07/10 07:39:22;;;;;;;23.83;21.35;;;21.00;99.90;;;;;;4993353;28;20053;-70
2021/07/10 07:41:49;;;;;;;37.00;22.98;;;21.20;99.90;;;;;;4975793;28;20039;-80
2021/07/10 07:44:15;;;;;;;25.80;23.10;;;21.20;99.90;;;;;;4965340;28;20551;-70
2021/07/10 07:46:41;;;;;;;24.00;20.90;;;21.30;99.90;;;;;;4977008;28;20038;-83
2021/07/10 07:49:06;;;;;;;23.90;20.85;;;21.50;99.90;;;;;;4987584;28;20054;-80
2021/07/10 07:51:32;;;;;;;25.27;22.48;;;21.60;99.90;;;;;;4994250;28;20026;-71
2021/07/10 07:53:58;;;;;;;24.23;21.63;;;21.70;99.90;;;;;;4994418;28;20034;-77
2021/07/10 07:56:24;;;;;;;23.60;21.05;;;21.70;99.90;;;;;;4976075;28;20479;-70
2021/07/10 07:58:50;;;;;;;25.20;20.25;;;21.70;99.90;;;;;;4994367;28;20093;-70
2021/07/10 08:01:15;;;;;;;24.20;21.60;;;21.80;99.90;;;;;;4993467;28;20415;-86
2021/07/10 08:03:41;;;;;;;25.15;22.30;;;21.90;99.90;;;;;;4993157;28;20533;-78
2021/07/10 08:06:07;;;;;;;22.50;20.20;;;21.90;99.90;;;;;;4994139;28;20125;-70
2021/07/10 08:08:41;;;;;;;23.95;21.35;;;22.00;99.90;;;;;;4978971;28;20042;-70
2021/07/10 08:11:09;;;;;;;23.73;20.10;;;22.10;99.90;;;;;;4980615;28;20470;-70
2021/07/10 08:13:34;;;;;;;20.10;17.23;;;22.20;99.90;;;;;;4979161;28;20081;-70
2021/07/10 08:16:01;;;;;;;22.80;18.27;;;22.40;99.90;;;;;;4985488;28;20022;-73
2021/07/10 08:18:26;;;;;;;24.27;20.45;;;22.60;99.90;;;;;;4980233;28;20027;-70
2021/07/10 08:20:53;;;;;;;20.20;17.85;;;22.60;99.90;;;;;;4967268;28;20085;-71
2021/07/10 08:23:18;;;;;;;17.60;15.82;;;22.60;99.90;;;;;;4981714;28;20110;-93
2021/07/10 08:25:46;;;;;;;18.73;16.77;;;22.70;99.90;;;;;;4961884;28;20059;-70
2021/07/10 08:28:11;;;;;;;19.67;17.15;;;22.80;99.90;;;;;;4979004;28;20039;-71
2021/07/10 08:30:37;;;;;;;20.15;17.35;;;22.80;99.90;;;;;;4993056;28;20438;-71
2021/07/10 08:33:03;;;;;;;19.88;16.23;;;22.90;99.90;;;;;;4993639;28;20065;-70
2021/07/10 08:35:28;;;;;;;17.45;15.48;;;23.00;99.90;;;;;;4988523;28;20073;-71
2021/07/10 08:37:54;;;;;;;18.42;16.25;;;23.00;99.90;;;;;;4993258;28;20416;-73
2021/07/10 08:40:21;;;;;;;18.75;16.80;;;23.00;99.90;;;;;;4986728;28;20041;-71
2021/07/10 08:42:47;;;;;;;22.20;16.13;;;23.00;99.90;;;;;;4974190;28;20498;-72
2021/07/10 08:45:13;;;;;;;20.30;16.60;;;22.90;99.90;;;;;;4973365;28;20019;-71
2021/07/10 08:47:42;;;;;;;18.50;16.52;;;23.00;99.90;;;;;;4974158;28;20031;-71
2021/07/10 08:50:26;;;;;;;17.30;15.13;;;23.00;99.90;;;;;;4973833;28;20523;-69
2021/07/10 08:52:52;;;;;;;17.27;14.10;;;22.70;99.90;;;;;;4982428;28;20027;-69
2021/07/10 08:55:19;;;;;;;16.73;14.30;;;22.70;99.90;;;;;;4992922;28;20025;-68
2021/07/10 08:57:44;;;;;;;17.85;14.52;;;22.60;99.90;;;;;;4956069;28;20031;-68
2021/07/10 09:00:32;;;;;;;17.67;15.57;;;22.60;99.90;;;;;;4973851;28;20026;-79
2021/07/10 09:02:59;;;;;;;18.60;15.77;;;22.50;99.90;;;;;;4975991;28;20034;-79
2021/07/10 09:05:26;;;;;;;16.98;14.57;;;22.40;99.90;;;;;;4967024;28;20570;-70
2021/07/10 09:08:12;;;;;;;15.20;12.82;;;22.50;99.90;;;;;;4993211;28;20038;-70
2021/07/10 09:10:39;;;;;;;14.35;12.50;;;22.60;99.90;;;;;;4988245;28;20043;-82
2021/07/10 09:13:05;;;;;;;15.45;12.93;;;22.70;99.90;;;;;;4972791;28;20074;-69
2021/07/10 09:15:32;;;;;;;13.35;10.75;;;22.70;99.90;;;;;;4982537;28;20220;-70
2021/07/10 09:17:58;;;;;;;13.55;11.85;;;22.80;99.90;;;;;;4993129;28;20022;-69
2021/07/10 09:20:26;;;;;;;17.75;10.93;;;22.90;99.90;;;;;;4992083;28;20026;-69
2021/07/10 09:22:52;;;;;;;13.18;10.63;;;23.00;99.90;;;;;;4982618;28;20023;-69
2021/07/10 09:25:25;;;;;;;11.27;10.13;;;23.00;99.30;;;;;;4956468;28;20034;-70
2021/07/10 09:27:53;;;;;;;11.48;10.27;;;23.10;99.30;;;;;;4955563;28;20069;-69
2021/07/10 09:30:33;;;;;;;10.55;9.23;;;23.30;99.10;;;;;;4973319;28;20494;-73
2021/07/10 09:33:19;;;;;;;8.57;7.53;;;23.40;98.20;;;;;;4972916;28;20098;-74
2021/07/10 09:36:01;;;;;;;8.52;7.38;;;23.50;98.00;;;;;;4974611;28;20110;-69
2021/07/10 09:38:33;;;;;;;7.88;6.72;;;23.70;96.80;;;;;;4956102;28;20383;-76
2021/07/10 09:40:59;;;;;;;5.55;5.05;;;23.80;96.70;;;;;;4973187;28;20019;-87
2021/07/10 09:43:26;;;;;;;5.82;4.65;;;24.00;95.80;;;;;;4973767;28;20034;-89
2021/07/10 09:45:52;;;;;;;5.18;4.60;;;24.00;94.30;;;;;;4957965;28;20256;-70
2021/07/10 09:48:18;;;;;;;5.28;4.78;;;24.00;93.70;;;;;;4976020;28;20030;-90
2021/07/10 09:50:43;;;;;;;4.88;3.92;;;23.90;93.20;;;;;;4976709;28;20030;-70
2021/07/10 09:53:23;;;;;;;7.60;4.82;;;23.90;93.40;;;;;;4994631;28;20549;-70
2021/07/10 09:55:48;;;;;;;5.75;4.50;;;24.00;92.90;;;;;;4992625;28;20018;-71
2021/07/10 09:58:31;;;;;;;8.80;5.18;;;24.20;93.70;;;;;;4992467;28;20037;-70
2021/07/10 10:00:57;;;;;;;5.68;4.60;;;24.30;93.50;;;;;;4992121;28;20029;-69
2021/07/10 10:03:35;;;;;;;5.45;4.72;;;24.40;93.80;;;;;;4994398;28;20030;-69
2021/07/10 10:06:35;;;;;;;5.47;4.38;;;24.50;92.70;;;;;;4995949;28;20062;-69
2021/07/10 10:09:14;;;;;;;6.88;5.47;;;24.60;93.00;;;;;;4975959;28;20039;-70
2021/07/10 10:11:54;;;;;;;6.40;4.88;;;24.70;91.80;;;;;;4993948;28;20406;-70
2021/07/10 10:14:20;;;;;;;6.88;5.22;;;24.60;92.10;;;;;;4996112;28;20475;-72
2021/07/10 10:16:49;;;;;;;7.30;6.47;;;24.70;91.90;;;;;;4995640;28;20018;-72
2021/07/10 10:19:23;;;;;;;8.48;5.80;;;24.70;91.70;;;;;;4995796;28;20026;-72
2021/07/10 10:21:56;;;;;;;7.10;4.53;;;24.70;92.10;;;;;;4996194;28;20026;-72
2021/07/10 10:24:23;;;;;;;5.35;4.72;;;24.70;91.00;;;;;;4994727;28;20471;-72
2021/07/10 10:26:50;;;;;;;6.93;5.60;;;24.50;90.00;;;;;;4978505;28;20023;-72
2021/07/10 10:29:18;;;;;;;5.80;5.20;;;24.30;90.40;;;;;;4993738;28;20037;-72
2021/07/10 10:31:45;;;;;;;6.53;5.85;;;24.20;91.00;;;;;;4985017;28;20105;-74
2021/07/10 10:34:12;;;;;;;8.20;6.18;;;24.30;91.40;;;;;;4992742;28;20049;-73
2021/07/10 10:36:42;;;;;;;5.95;5.35;;;24.40;91.80;;;;;;4981501;28;20023;-72
2021/07/10 10:39:11;;;;;;;6.32;5.70;;;24.50;91.90;;;;;;4983135;28;20033;-72
2021/07/10 10:41:39;;;;;;;7.00;6.22;;;24.60;91.70;;;;;;4995602;28;20022;-69
2021/07/10 10:44:06;;;;;;;6.82;6.22;;;24.80;92.10;;;;;;4994853;28;20483;-70
2021/07/10 10:46:51;;;;;;;7.45;5.78;;;24.80;91.30;;;;;;4995579;28;20034;-69
2021/07/10 10:49:47;;;;;;;8.77;7.40;;;24.80;91.80;;;;;;4977468;28;20034;-69
2021/07/10 10:52:24;;;;;;;8.13;7.32;;;24.90;91.70;;;;;;4978635;28;20037;-69
2021/07/10 10:54:52;;;;;;;8.30;7.28;;;24.80;91.20;;;;;;4995248;28;20430;-69
2021/07/10 10:57:33;;;;;;;8.60;7.72;;;24.70;91.80;;;;;;4994529;28;20455;-70
2021/07/10 10:59:59;;;;;;;7.68;6.80;;;24.40;90.80;;;;;;4995264;28;20483;-69
2021/07/10 11:02:25;;;;;;;10.27;9.25;;;24.20;91.70;;;;;;4989257;28;20019;-69
2021/07/10 11:04:56;;;;;;;8.73;7.80;;;24.20;91.00;;;;;;4974880;28;20029;-69
2021/07/10 11:07:23;;;;;;;11.02;8.70;;;24.00;91.20;;;;;;4977391;28;20062;-71
2021/07/10 11:10:09;;;;;;;10.23;9.20;;;24.00;91.40;;;;;;4994804;28;20014;-70
2021/07/10 11:12:54;;;;;;;11.32;9.02;;;24.00;91.60;;;;;;4957798;28;20391;-73
2021/07/10 11:15:26;;;;;;;10.27;8.40;;;24.10;91.60;;;;;;4987445;28;20022;-69
2021/07/10 11:17:52;;;;;;;12.95;9.13;;;24.10;91.20;;;;;;4992875;28;20104;-69
2021/07/10 11:20:50;;;;;;;10.48;8.55;;;24.20;91.20;;;;;;4982130;28;20415;-72
2021/07/10 11:23:26;;;;;;;10.80;9.27;;;24.50;91.20;;;;;;4992760;28;20080;-86
2021/07/10 11:25:55;;;;;;;14.70;9.65;;;24.70;91.10;;;;;;4994739;28;20026;-77
2021/07/10 11:28:33;;;;;;;13.50;9.55;;;24.70;91.40;;;;;;4993366;28;20041;-81
2021/07/10 11:31:05;;;;;;;9.20;7.13;;;24.90;91.50;;;;;;4994149;28;20066;-82
2021/07/10 11:34:17;;;;;;;9.95;8.40;;;25.00;91.80;;;;;;4994321;28;20033;-70
2021/07/10 11:36:52;;;;;;;8.63;7.63;;;25.30;91.80;;;;;;4991220;28;20034;-69
2021/07/10 11:39:23;;;;;;;9.68;8.00;;;25.30;90.70;;;;;;4993848;28;20014;-70
2021/07/10 11:41:55;;;;;;;10.38;9.23;;;25.20;90.60;;;;;;4976706;28;20049;-69
2021/07/10 11:44:24;;;;;;;11.52;8.18;;;25.10;91.00;;;;;;4976291;28;20021;-69
2021/07/10 11:46:55;;;;;;;8.80;7.90;;;25.10;91.70;;;;;;4993287;28;20041;-71
2021/07/10 11:49:40;;;;;;;9.57;8.35;;;25.10;92.80;;;;;;4994125;28;20034;-75
2021/07/10 11:52:18;;;;;;;11.70;9.00;;;25.00;92.20;;;;;;4994333;28;20459;-85
2021/07/10 11:54:53;;;;;;;9.85;8.80;;;25.00;91.80;;;;;;4993998;28;20085;-70
2021/07/10 11:57:20;;;;;;;11.38;9.73;;;25.10;91.70;;;;;;4972861;28;20022;-69
2021/07/10 11:59:45;;;;;;;11.65;10.45;;;25.20;91.50;;;;;;4985842;28;20151;-69
2021/07/10 12:02:21;;;;;;;10.07;8.70;;;25.10;91.00;;;;;;4986354;28;20507;-68
2021/07/10 12:05:07;;;;;;;11.98;10.68;;;24.70;91.40;;;;;;5008727;28;20070;-68
2021/07/10 12:07:45;;;;;;;12.30;9.57;;;24.60;90.90;;;;;;4995637;28;20042;-67
2021/07/10 12:10:21;;;;;;;7.50;6.70;;;24.50;91.00;;;;;;4989197;28;20038;-72
2021/07/10 12:12:49;;;;;;;9.75;8.75;;;24.60;91.30;;;;;;4950734;29;20129;-69
2021/07/10 12:15:26;;;;;;;10.50;8.23;;;24.80;90.50;;;;;;4950035;29;20027;-71
2021/07/10 12:17:55;;;;;;;11.48;9.70;;;24.90;90.40;;;;;;4951272;28;20432;-69
2021/07/10 12:20:27;;;;;;;11.23;9.20;;;25.00;90.00;;;;;;4950742;28;20047;-75
2021/07/10 12:23:02;;;;;;;9.63;8.63;;;24.90;90.60;;;;;;4950246;28;20039;-69
2021/07/10 12:25:34;;;;;;;10.77;8.80;;;24.80;90.70;;;;;;4950421;28;20027;-79
2021/07/10 12:28:03;;;;;;;7.70;7.00;;;24.70;89.40;;;;;;4949972;29;20121;-68
2021/07/10 12:30:40;;;;;;;8.45;6.32;;;24.50;90.40;;;;;;4949439;29;20077;-75
2021/07/10 12:33:28;;;;;;;5.25;4.75;;;24.50;90.10;;;;;;4949824;29;20388;-71
2021/07/10 12:36:00;;;;;;;6.55;4.70;;;24.40;87.30;;;;;;4950487;29;20384;-68